Thunder radar more information blitzortung!


Radar de pluja more information rain snow radar


Visita la nostra xarxa de llocs de meteo:

Template documentation
and downloads

And another site



No particular awareness of the weather is required.    There are no Weather-warnings

Pagina Historial Weather Underground text

Diari Resum February 15, 2016 Unitats:  Mètric    Imperial   Tant
« Previous Dia
SegĂźent Dia »
Diari Setmana Mensual Anual Personalitzada
  Maxima: Minima: Media:
Temperatura: -17.8 °C -14.6 °C -11.2 °C
Punt de rosada: -17.8 °C -23.2 °C -18.4 °C
Humitat: Humidity % 26 % 41 %
Wind Speed: 0 km/h 0 km/h 9.3 km/h
RĂ fegues de vent: 0 km/h - -
Vent:- - SSE
Pression baro: 0 hPa 34029.3 hPa -
Precipitacions: 0 mm    
Historical Graphs
 
 
Dades de taula per February 15, 2016
Temps Temperatura Punt de rosada Pression baro Vent Wind Speed RĂ fegues de vent Humitat Rainfall Rate (Hourly)
-17.8 °C -17.8 °C 0 hPa Calm     Humidity % 0 mm
11:44 -11.7 °C -16.6 °C 34029.3 hPa ESE 11.9 km/h 11.9 km/h 55 % 0 mm
11:49 -11.7 °C -16.5 °C 34063.2 hPa SE 6.8 km/h 6.8 km/h 55 % 0 mm
11:54 -11.4 °C -16.4 °C 34063.2 hPa ESE 10.3 km/h 10.3 km/h 54 % 0 mm
11:59 -11.3 °C -16.3 °C 34063.2 hPa ENE 6 km/h 6 km/h 54 % 0 mm
12:09 -11.3 °C -16.3 °C 34063.2 hPa NNE 11.9 km/h 11.9 km/h 54 % 0 mm
12:14 -11.4 °C -16.6 °C 34063.2 hPa NW 5.1 km/h 5.1 km/h 53 % 0 mm
12:19 -11.2 °C -16.2 °C 34063.2 hPa ENE 6.8 km/h 6.8 km/h 54 % 0 mm
12:24 -11.1 °C -16.3 °C 34063.2 hPa ENE 9 km/h 9 km/h 53 % 0 mm
12:29 -10.9 °C -16.1 °C 34063.2 hPa East 8.5 km/h 8.5 km/h 53 % 0 mm
12:34 -10.8 °C -15.9 °C 34063.2 hPa ENE 6.3 km/h 6.3 km/h 53 % 0 mm
12:39 -10.8 °C -15.9 °C 34063.2 hPa NE 9 km/h 9 km/h 53 % 0 mm
12:44 -10.7 °C -15.9 °C 34063.2 hPa ENE 6 km/h 6 km/h 53 % 0 mm
12:49 -10.7 °C -16 °C 34063.2 hPa NNE 7.6 km/h 7.6 km/h 52 % 0 mm
12:54 -10.7 °C -16 °C 34063.2 hPa East 11.9 km/h 11.9 km/h 52 % 0 mm
12:59 -10.6 °C -15.9 °C 34063.2 hPa SSE 9 km/h 9 km/h 52 % 0 mm
13:04 -10.4 °C -15.7 °C 34029.3 hPa ESE 9 km/h 9 km/h 52 % 0 mm
13:09 -10.3 °C -15.9 °C 34029.3 hPa ENE 6 km/h 6.3 km/h 51 % 0 mm
13:19 -10.1 °C -15.6 °C 34063.2 hPa South 9 km/h 9 km/h 51 % 0 mm
13:29 -9.8 °C -15.3 °C 34063.2 hPa WSW 6.8 km/h 6.8 km/h 51 % 0 mm
13:34 -9.6 °C -15.2 °C 34063.2 hPa SW 6 km/h 6 km/h 51 % 0 mm
13:39 -9.6 °C -15.4 °C 34063.2 hPa SW 6.3 km/h 6.3 km/h 49 % 0 mm
13:44 -9.6 °C -15.4 °C 34063.2 hPa SW 15 km/h 15 km/h 49 % 0 mm
13:49 -9.2 °C -15.3 °C 34063.2 hPa West 11.9 km/h 11.9 km/h 48 % 0 mm
13:54 -9.2 °C -15.3 °C 34063.2 hPa WSW 11.9 km/h 11.9 km/h 48 % 0 mm
13:59 -9.1 °C -15.7 °C 34063.2 hPa SW 23.8 km/h 23.8 km/h 45 % 0 mm
14:04 -9.2 °C -16.2 °C 34097 hPa WNW 15 km/h 15 km/h 43 % 0 mm
14:09 -9.1 °C -16 °C 34097 hPa WSW 10.3 km/h 10.3 km/h 43 % 0 mm
14:14 -9.1 °C -16.3 °C 34097 hPa WSW 17.9 km/h 17.9 km/h 42 % 0 mm
14:19 -9.1 °C -16.4 °C 34063.2 hPa NW 15 km/h 15 km/h 41 % 0 mm
14:24 -9.1 °C -16.4 °C 34063.2 hPa NNW 9 km/h 9 km/h 41 % 0 mm
14:34 -9.1 °C -16.4 °C 34097 hPa North 6 km/h 6 km/h 41 % 0 mm
14:39 -9.1 °C -16.4 °C 34097 hPa WSW 9 km/h 9 km/h 41 % 0 mm
14:44 -9.1 °C -16.4 °C 34097 hPa West 15 km/h 15 km/h 41 % 0 mm
14:49 -9.1 °C -16.4 °C 34097 hPa SW 11.9 km/h 11.9 km/h 41 % 0 mm
14:54 -8.5 °C -16.7 °C 34097 hPa WSW 15 km/h 15 km/h 37 % 0 mm
14:59 -8.6 °C -17.2 °C 34097 hPa NW 15 km/h 15 km/h 35 % 0 mm
15:04 -8.5 °C -17.1 °C 34097 hPa NNE 11.9 km/h 11.9 km/h 35 % 0 mm
15:09 -8.5 °C -17.1 °C 34097 hPa WSW 11.9 km/h 11.9 km/h 35 % 0 mm
15:19 -8.5 °C -17.1 °C 34130.9 hPa SW 9 km/h 9 km/h 35 % 0 mm
15:24 -8.6 °C -17.7 °C 34130.9 hPa WNW 15 km/h 15 km/h 33 % 0 mm
15:29 -8.7 °C -17.7 °C 34130.9 hPa SSW 20.9 km/h 20.9 km/h 33 % 0 mm
15:34 -8.5 °C -17.4 °C 34130.9 hPa West 6 km/h 6 km/h 34 % 0 mm
15:39 -8.6 °C -17.4 °C 34130.9 hPa SW 9.3 km/h 9.3 km/h 34 % 0 mm
15:44 -8.6 °C -17.7 °C 34130.9 hPa WSW 15 km/h 15 km/h 33 % 0 mm
15:54 -8.3 °C -17.4 °C 34130.9 hPa NNE 15 km/h 15 km/h 33 % 0 mm
15:59 -8.4 °C -17.5 °C 34130.9 hPa WSW 15 km/h 15 km/h 33 % 0 mm
16:04 -8.3 °C -17.4 °C 34130.9 hPa WSW 11.9 km/h 11.9 km/h 33 % 0 mm
16:09 -8.3 °C -17.7 °C 34130.9 hPa SSW 9 km/h 9 km/h 32 % 0 mm
16:14 -8.3 °C -17.9 °C 34130.9 hPa West 9 km/h 9 km/h 31 % 0 mm
16:19 -8.3 °C -17.6 °C 34130.9 hPa WSW 9.3 km/h 9.3 km/h 32 % 0 mm
16:24 -8.4 °C -18.5 °C 34130.9 hPa WSW 15 km/h 15 km/h 29 % 0 mm
16:29 -8.4 °C -18.5 °C 34130.9 hPa WSW 11.9 km/h 11.9 km/h 29 % 0 mm
16:34 -8.4 °C -18.8 °C 34130.9 hPa ESE 15 km/h 15 km/h 28 % 0 mm
16:39 -8.3 °C -18.4 °C 34130.9 hPa NNE 11.9 km/h 11.9 km/h 29 % 0 mm
16:44 -8.3 °C -18.4 °C 34130.9 hPa WNW 11.9 km/h 11.9 km/h 29 % 0 mm
16:49 -8.4 °C -19 °C 34130.9 hPa WSW 11.9 km/h 11.9 km/h 27 % 0 mm
16:54 -8.3 °C -19 °C 34130.9 hPa SW 15 km/h 15 km/h 27 % 0 mm
16:59 -8.3 °C -19 °C 34130.9 hPa WSW 16.6 km/h 16.6 km/h 27 % 0 mm
17:04 -8.4 °C -19.3 °C 34164.7 hPa SSW 9 km/h 9 km/h 26 % 0 mm
17:09 -8.4 °C -19.3 °C 34164.7 hPa NNE 9 km/h 9 km/h 26 % 0 mm
17:14 -9.2 °C -18.7 °C 34164.7 hPa ENE 19.6 km/h 19.6 km/h 31 % 0 mm
17:19 -9.9 °C -18.8 °C 34198.6 hPa NE 11.9 km/h 11.9 km/h 33 % 0 mm
17:24 -10.1 °C -18.6 °C 34198.6 hPa ENE 27.7 km/h 27.7 km/h 35 % 0 mm
17:29 -10.5 °C -18.3 °C 34198.6 hPa NE 32.8 km/h 32.8 km/h 38 % 0 mm
17:39 -10.9 °C -18.1 °C 34198.6 hPa ENE 22 km/h 22 km/h 41 % 0 mm
17:44 -11.1 °C -17.9 °C 34198.6 hPa NE 15 km/h 15 km/h 43 % 0 mm
17:49 -11.3 °C -18.1 °C 34222.3 hPa East 23.8 km/h 23.8 km/h 43 % 0 mm
17:54 -11.3 °C -17.7 °C 34222.3 hPa ESE 15 km/h 15 km/h 45 % 0 mm
17:59 -11.4 °C -17.7 °C 34222.3 hPa NE 15.3 km/h 15.3 km/h 46 % 0 mm
18:04 -11.5 °C -17.7 °C 34256.2 hPa ESE 17.9 km/h 17.9 km/h 46 % 0 mm
18:09 -11.6 °C -17.9 °C 34256.2 hPa ESE 17.9 km/h 17.9 km/h 45 % 0 mm
18:14 -11.6 °C -17.8 °C 34256.2 hPa ENE 11.9 km/h 11.9 km/h 46 % 0 mm
18:19 -11.7 °C -17.9 °C 34256.2 hPa East 9 km/h 9 km/h 46 % 0 mm
18:24 -11.7 °C -17.9 °C 34256.2 hPa East 9 km/h 9 km/h 46 % 0 mm
18:29 -11.8 °C -18 °C 34256.2 hPa ENE 11.9 km/h 11.9 km/h 46 % 0 mm
18:34 -11.8 °C -17.8 °C 34256.2 hPa East 9 km/h 9 km/h 47 % 0 mm
18:39 -11.8 °C -17.9 °C 34256.2 hPa NE 3.1 km/h 3.1 km/h 47 % 0 mm
18:44 -11.9 °C -17.8 °C 34256.2 hPa NNW 9 km/h 9 km/h 48 % 0 mm
18:49 -11.9 °C -17.8 °C 34293.4 hPa ESE 7.6 km/h 7.6 km/h 48 % 0 mm
18:54 -12 °C -17.7 °C 34293.4 hPa SW 3.7 km/h 3.7 km/h 49 % 0 mm
18:59 -12.1 °C -17.7 °C 34293.4 hPa NNW 6 km/h 6 km/h 49 % 0 mm
19:09 -12.2 °C -17.7 °C 34327.3 hPa ENE 6 km/h 6 km/h 50 % 0 mm
19:14 -12.2 °C -17.7 °C 34327.3 hPa WNW 3.1 km/h 3.1 km/h 50 % 0 mm
19:19 -12.3 °C -17.9 °C 34327.3 hPa Calm     50 % 0 mm
19:24 -12.3 °C -17.9 °C 34327.3 hPa ENE 3.1 km/h 3.7 km/h 50 % 0 mm
19:29 -12.4 °C -17.8 °C 34327.3 hPa NNW 6 km/h 6 km/h 51 % 0 mm
19:39 -12.4 °C -17.8 °C 34327.3 hPa NNE 9 km/h 9 km/h 51 % 0 mm
19:44 -12.4 °C -17.9 °C 34327.3 hPa North 6 km/h 6.8 km/h 50 % 0 mm
19:49 -12.4 °C -17.9 °C 34327.3 hPa NE 6 km/h 6 km/h 50 % 0 mm
19:54 -12.5 °C -17.9 °C 34327.3 hPa NE 4.2 km/h 4.2 km/h 51 % 0 mm
19:59 -12.6 °C -17.9 °C 34327.3 hPa NNE 3.7 km/h 4.2 km/h 51 % 0 mm
20:04 -12.6 °C -17.9 °C 34327.3 hPa NE 6 km/h 6 km/h 51 % 0 mm
20:09 -12.7 °C -18.2 °C 34327.3 hPa North 6 km/h 6 km/h 50 % 0 mm
20:14 -12.7 °C -18.7 °C 34327.3 hPa NE 3.1 km/h 3.1 km/h 47 % 0 mm
20:19 -12.7 °C -18.9 °C 34361.1 hPa NNE 9 km/h 9 km/h 45 % 0 mm
20:24 -12.7 °C -19.2 °C 34361.1 hPa WNW 3.7 km/h   44 % 0 mm
20:29 -12.8 °C -19.6 °C 34361.1 hPa East 3.1 km/h   42 % 0 mm
20:34 -12.8 °C -19.6 °C 34361.1 hPa NE 3.1 km/h   42 % 0 mm
20:39 -12.8 °C -19.8 °C 34361.1 hPa WNW 6 km/h 6 km/h 41 % 0 mm
20:44 -12.9 °C -20.1 °C 34361.1 hPa West 3.1 km/h   40 % 0 mm
20:49 -12.9 °C -20.3 °C 34361.1 hPa Calm     39 % 0 mm
20:54 -13.1 °C -20.6 °C 34361.1 hPa NNE 3.1 km/h   38 % 0 mm
20:59 -13.1 °C -20.6 °C 34361.1 hPa Calm     38 % 0 mm
21:04 -13.2 °C -21.1 °C 34361.1 hPa Calm     36 % 0 mm
21:09 -13.2 °C -20.9 °C 34361.1 hPa Calm     37 % 0 mm
21:14 -13.4 °C -20.9 °C 34361.1 hPa WSW 6 km/h 6 km/h 38 % 0 mm
21:19 -13.6 °C -21 °C 34395 hPa WSW 6.3 km/h   38 % 0 mm
21:24 -13.6 °C -21.3 °C 34395 hPa WSW 5.6 km/h 5.6 km/h 37 % 0 mm
21:29 -13.6 °C -21.4 °C 34395 hPa Calm     36 % 0 mm
21:34 -13.6 °C -21.7 °C 34395 hPa WNW 3.1 km/h   35 % 0 mm
21:39 -13.7 °C -21.7 °C 34395 hPa West 6 km/h 6 km/h 35 % 0 mm
21:44 -13.7 °C -21.8 °C 34395 hPa SW 6 km/h 6 km/h 35 % 0 mm
21:49 -13.8 °C -22.1 °C 34361.1 hPa WSW 6 km/h   34 % 0 mm
21:54 -13.8 °C -22.1 °C 34361.1 hPa NNE 6 km/h 6 km/h 34 % 0 mm
21:59 -13.5 °C -21.8 °C 34361.1 hPa SW 11.9 km/h 11.9 km/h 34 % 0 mm
22:04 -13.6 °C -21.9 °C 34395 hPa WSW 6 km/h 6 km/h 34 % 0 mm
22:09 -13.9 °C -22.1 °C 34395 hPa West 6.3 km/h 6.3 km/h 34 % 0 mm
22:14 -14 °C -22.2 °C 34395 hPa North 5.1 km/h 5.1 km/h 34 % 0 mm
22:19 -13.8 °C -22.3 °C 34395 hPa WNW 6 km/h 6 km/h 33 % 0 mm
22:24 -13.8 °C -22.1 °C 34395 hPa WSW 9.8 km/h 9.8 km/h 34 % 0 mm
22:29 -13.9 °C -22.4 °C 34395 hPa SW 9 km/h 9 km/h 33 % 0 mm
22:34 -14.1 °C -22.4 °C 34428.8 hPa NNE 5.1 km/h   33 % 0 mm
22:39 -14.1 °C -22.6 °C 34428.8 hPa NE 6 km/h 6 km/h 33 % 0 mm
22:44 -13.9 °C -22.6 °C 34428.8 hPa NNW 6 km/h 6 km/h 32 % 0 mm
22:49 -13.8 °C -22.5 °C 34428.8 hPa WNW 6 km/h 6 km/h 32 % 0 mm
22:54 -13.9 °C -22.6 °C 34428.8 hPa SW 6 km/h 6 km/h 32 % 0 mm
22:59 -14.1 °C -22.6 °C 34428.8 hPa SW 9 km/h 9 km/h 33 % 0 mm
23:04 -14.4 °C -23.1 °C 34462.7 hPa SSW 15 km/h 15 km/h 32 % 0 mm
23:09 -14.6 °C -23.2 °C 34462.7 hPa SW 6.8 km/h 6.8 km/h 32 % 0 mm
Meteo Sesrovires
Elogis d' Weather Underground - 1.25 mb

Guio original per  Jim McMurry - jmcmurry@mwt.net Adaptat per a la plantilla per  Wim van der Kuil - Leuven-Template.eu

Trobareu la nostra informacio del temps tambe a:

Weather Underground

AWEKAS